Time;durP1;ratioP1;P1;durP2;ratioP2;P2;SDS_P1;SDS_P2;PMS_P1;PMS_P2;Temp;Humidity;BMP_temperature;BMP_pressure;BME280_temperature;BME280_humidity;BME280_pressure;Samples;Min_cycle;Max_cycle;Signal;HPM_P1;HPM_P2
2023/08/28 00:02:22;;;;;;;5.65;1.60;;;21.20;94.20;;;;;;5055919;28;20025;-68
2023/08/28 00:04:48;;;;;;;2.97;1.70;;;21.20;94.30;;;;;;5055103;28;20032;-68
2023/08/28 00:07:14;;;;;;;4.95;2.30;;;21.20;94.20;;;;;;5055840;28;20100;-68
2023/08/28 00:09:39;;;;;;;7.18;1.83;;;21.20;94.10;;;;;;5054918;28;20051;-69
2023/08/28 00:12:05;;;;;;;4.57;1.88;;;21.20;94.10;;;;;;5055613;28;20029;-67
2023/08/28 00:14:31;;;;;;;2.47;1.58;;;21.20;94.50;;;;;;5055387;28;20056;-68
2023/08/28 00:16:57;;;;;;;3.13;1.60;;;21.20;94.30;;;;;;5054804;28;20072;-67
2023/08/28 00:19:23;;;;;;;3.80;1.90;;;21.10;94.30;;;;;;5055538;28;20036;-67
2023/08/28 00:21:49;;;;;;;2.53;1.38;;;21.10;94.30;;;;;;5055119;28;20017;-67
2023/08/28 00:24:14;;;;;;;3.13;2.00;;;21.10;94.30;;;;;;5055424;28;20037;-67
2023/08/28 00:26:40;;;;;;;2.20;1.77;;;21.10;94.50;;;;;;5053361;28;20021;-69
2023/08/28 00:29:05;;;;;;;3.42;1.95;;;21.10;94.70;;;;;;5035310;28;20068;-67
2023/08/28 00:31:31;;;;;;;3.30;1.80;;;21.10;94.80;;;;;;5035036;28;20523;-67
2023/08/28 00:33:56;;;;;;;2.92;1.45;;;21.20;94.60;;;;;;5017224;28;20025;-67
2023/08/28 00:36:22;;;;;;;3.10;1.70;;;21.10;94.70;;;;;;5034829;28;20040;-68
2023/08/28 00:38:48;;;;;;;4.50;1.90;;;21.10;94.90;;;;;;5034500;28;20343;-68
2023/08/28 00:41:13;;;;;;;3.72;1.90;;;21.00;95.20;;;;;;5035556;28;20032;-68
2023/08/28 00:43:39;;;;;;;2.63;1.60;;;21.10;95.20;;;;;;5035383;28;20115;-68
2023/08/28 00:46:05;;;;;;;2.42;1.40;;;21.10;95.10;;;;;;5034678;28;20359;-68
2023/08/28 00:48:32;;;;;;;3.97;1.58;;;21.10;95.00;;;;;;5035049;28;20033;-68
2023/08/28 00:50:58;;;;;;;3.08;2.15;;;21.10;95.20;;;;;;5034673;28;20030;-68
2023/08/28 00:53:24;;;;;;;3.00;1.65;;;21.00;95.20;;;;;;5034956;28;20030;-67
2023/08/28 00:55:50;;;;;;;1.85;1.40;;;21.00;95.50;;;;;;5034578;28;20057;-67
2023/08/28 00:58:16;;;;;;;2.53;1.52;;;21.00;95.70;;;;;;5034916;28;20090;-67
2023/08/28 01:00:42;;;;;;;2.92;1.70;;;21.00;95.70;;;;;;5034508;28;20513;-70
2023/08/28 01:03:09;;;;;;;2.42;1.50;;;21.00;95.70;;;;;;5034951;28;20097;-66
2023/08/28 01:05:49;;;;;;;3.33;1.48;;;20.90;95.90;;;;;;5034814;28;20033;-67
2023/08/28 01:08:39;;;;;;;4.20;1.63;;;20.90;96.40;;;;;;5034848;28;20096;-67
2023/08/28 01:11:53;;;;;;;3.25;1.80;;;20.90;96.20;;;;;;5034096;28;20033;-67
2023/08/28 01:14:29;;;;;;;3.47;1.40;;;20.90;96.20;;;;;;4934941;29;20036;-67
2023/08/28 01:16:58;;;;;;;2.45;1.58;;;20.80;96.40;;;;;;5019991;28;20042;-67
2023/08/28 01:19:32;;;;;;;2.75;1.80;;;20.80;96.40;;;;;;5034232;28;20021;-67
2023/08/28 01:22:18;;;;;;;3.05;1.80;;;20.90;96.40;;;;;;5034091;28;20025;-67
2023/08/28 01:24:49;;;;;;;4.97;1.80;;;20.90;96.60;;;;;;5034211;28;20083;-67
2023/08/28 01:27:16;;;;;;;2.08;1.60;;;20.90;96.40;;;;;;5034531;28;20113;-67
2023/08/28 01:29:41;;;;;;;3.78;1.50;;;20.80;96.50;;;;;;5034364;28;20022;-67
2023/08/28 01:32:07;;;;;;;2.50;1.58;;;20.90;96.50;;;;;;5034147;28;20033;-67
2023/08/28 01:34:34;;;;;;;1.60;1.30;;;20.80;96.60;;;;;;5033991;28;20471;-67
2023/08/28 01:37:08;;;;;;;2.13;1.52;;;20.80;96.60;;;;;;5035745;28;20037;-67
2023/08/28 01:39:41;;;;;;;4.45;1.70;;;20.80;96.60;;;;;;5033955;28;20032;-67
2023/08/28 01:42:09;;;;;;;2.08;1.40;;;20.80;96.80;;;;;;5033485;28;20421;-67
2023/08/28 01:44:36;;;;;;;2.22;1.67;;;20.80;96.60;;;;;;5033984;28;20108;-67
2023/08/28 01:47:02;;;;;;;3.30;1.60;;;20.80;96.50;;;;;;5033956;28;20467;-68
2023/08/28 01:49:29;;;;;;;2.55;1.60;;;20.80;96.60;;;;;;5054148;28;20036;-68
2023/08/28 01:51:55;;;;;;;1.95;1.50;;;20.70;96.70;;;;;;5053379;28;20029;-67
2023/08/28 01:54:22;;;;;;;2.30;1.88;;;20.70;96.80;;;;;;5053851;28;20497;-67
2023/08/28 01:56:48;;;;;;;2.22;1.67;;;20.80;96.90;;;;;;5053046;28;20389;-68
2023/08/28 01:59:14;;;;;;;4.50;1.60;;;20.70;96.50;;;;;;5053937;28;20373;-67
2023/08/28 02:01:40;;;;;;;2.67;1.80;;;20.80;96.50;;;;;;5053531;28;20028;-67
2023/08/28 02:04:06;;;;;;;2.53;1.67;;;20.80;96.60;;;;;;5053140;28;20131;-67
2023/08/28 02:06:32;;;;;;;3.50;1.27;;;20.70;96.80;;;;;;5053614;28;20479;-67
2023/08/28 02:08:57;;;;;;;4.03;1.60;;;20.70;96.80;;;;;;5035125;28;20099;-67
2023/08/28 02:11:23;;;;;;;3.33;1.42;;;20.70;96.80;;;;;;5053285;28;20469;-67
2023/08/28 02:13:49;;;;;;;2.75;1.55;;;20.60;97.10;;;;;;5052983;28;20025;-68
2023/08/28 02:16:17;;;;;;;3.00;1.50;;;20.60;97.00;;;;;;5053571;28;20466;-67
2023/08/28 02:18:42;;;;;;;3.80;1.63;;;20.70;96.70;;;;;;5050560;28;20032;-67
2023/08/28 02:21:08;;;;;;;1.67;1.38;;;20.60;96.70;;;;;;5051780;28;20036;-67
2023/08/28 02:23:34;;;;;;;3.38;1.40;;;20.60;96.70;;;;;;5053377;28;20107;-67
2023/08/28 02:26:00;;;;;;;5.57;1.50;;;20.60;96.90;;;;;;5052754;28;20492;-67
2023/08/28 02:28:25;;;;;;;6.07;1.50;;;20.60;97.00;;;;;;5052901;28;20017;-67
2023/08/28 02:30:51;;;;;;;2.63;1.35;;;20.60;97.00;;;;;;5052744;28;20025;-68
2023/08/28 02:33:17;;;;;;;2.50;1.60;;;20.60;96.80;;;;;;5052786;28;20029;-68
2023/08/28 02:35:43;;;;;;;2.08;1.33;;;20.60;96.80;;;;;;5052990;28;20069;-68
2023/08/28 02:38:12;;;;;;;3.92;1.40;;;20.60;96.90;;;;;;5052926;28;20287;-68
2023/08/28 02:40:39;;;;;;;1.80;1.40;;;20.60;96.50;;;;;;5052679;28;20458;-68
2023/08/28 02:43:05;;;;;;;2.45;1.20;;;20.60;96.50;;;;;;5052538;28;20025;-68
2023/08/28 02:45:36;;;;;;;2.85;1.23;;;20.50;96.40;;;;;;5052881;28;20028;-68
2023/08/28 02:48:03;;;;;;;2.57;1.30;;;20.50;96.30;;;;;;5052602;28;20025;-68
2023/08/28 02:50:29;;;;;;;3.20;1.45;;;20.50;96.10;;;;;;5052895;28;20025;-67
2023/08/28 02:52:55;;;;;;;2.05;1.40;;;20.50;96.30;;;;;;5052208;28;20032;-68
2023/08/28 02:55:22;;;;;;;3.30;1.50;;;20.50;96.00;;;;;;5052926;28;20040;-68
2023/08/28 02:57:48;;;;;;;4.00;1.40;;;20.50;96.00;;;;;;5052715;28;20108;-67
2023/08/28 03:00:14;;;;;;;5.32;1.50;;;20.50;95.80;;;;;;5052070;28;20112;-67
2023/08/28 03:02:39;;;;;;;2.42;1.30;;;20.50;95.80;;;;;;5052986;28;20036;-67
2023/08/28 03:05:06;;;;;;;1.95;1.23;;;20.50;95.60;;;;;;5052308;28;20033;-68
2023/08/28 03:07:31;;;;;;;3.65;1.40;;;20.50;95.50;;;;;;5052820;28;20025;-68
2023/08/28 03:09:57;;;;;;;2.63;1.80;;;20.50;95.40;;;;;;5052318;28;20032;-68
2023/08/28 03:12:22;;;;;;;1.75;1.20;;;20.50;95.60;;;;;;5052664;28;20445;-66
2023/08/28 03:14:48;;;;;;;2.13;1.13;;;20.50;95.70;;;;;;5052465;28;20029;-67
2023/08/28 03:17:14;;;;;;;1.88;1.13;;;20.50;95.50;;;;;;5052175;28;20108;-67
2023/08/28 03:19:40;;;;;;;2.53;1.30;;;20.50;95.40;;;;;;5052719;28;20036;-67
2023/08/28 03:22:05;;;;;;;1.83;1.10;;;20.50;95.10;;;;;;5052185;28;20021;-67
2023/08/28 03:24:31;;;;;;;1.92;1.38;;;20.50;95.00;;;;;;5052505;28;20032;-67
2023/08/28 03:26:57;;;;;;;2.47;1.50;;;20.60;95.10;;;;;;5052111;28;20040;-67
2023/08/28 03:29:23;;;;;;;2.10;1.33;;;20.60;94.80;;;;;;5052189;28;20374;-67
2023/08/28 03:31:49;;;;;;;2.65;1.25;;;20.60;94.70;;;;;;5052923;28;20025;-67
2023/08/28 03:34:15;;;;;;;1.92;1.38;;;20.60;94.30;;;;;;5056058;28;20036;-67
2023/08/28 03:36:41;;;;;;;1.65;1.10;;;20.60;94.30;;;;;;5056306;28;20041;-67
2023/08/28 03:39:07;;;;;;;3.45;1.38;;;20.60;94.20;;;;;;5055871;28;20056;-67
2023/08/28 03:41:33;;;;;;;2.58;1.35;;;20.60;94.20;;;;;;5052807;28;20525;-67
2023/08/28 03:43:58;;;;;;;3.50;1.27;;;20.50;94.30;;;;;;5055843;28;20096;-67
2023/08/28 03:46:24;;;;;;;1.50;1.30;;;20.50;94.10;;;;;;5038261;28;20057;-67
2023/08/28 03:48:50;;;;;;;1.30;1.20;;;20.50;94.20;;;;;;5056174;28;20469;-67
2023/08/28 03:51:15;;;;;;;1.88;1.20;;;20.60;94.20;;;;;;5055743;28;20032;-67
2023/08/28 03:53:42;;;;;;;2.58;1.40;;;20.60;93.90;;;;;;5054448;28;20068;-67
2023/08/28 03:56:07;;;;;;;2.25;1.30;;;20.50;94.10;;;;;;5055627;28;20095;-67
2023/08/28 03:58:33;;;;;;;3.15;1.30;;;20.50;94.00;;;;;;5055836;28;20469;-67
2023/08/28 04:00:59;;;;;;;3.70;1.30;;;20.50;94.10;;;;;;5055288;28;20021;-67
2023/08/28 04:03:25;;;;;;;1.88;1.30;;;20.50;94.00;;;;;;5056044;28;20021;-67
2023/08/28 04:05:52;;;;;;;1.95;1.20;;;20.50;94.00;;;;;;5055779;28;20072;-67
2023/08/28 04:08:19;;;;;;;3.33;1.42;;;20.50;94.00;;;;;;5055395;28;20033;-67
2023/08/28 04:10:45;;;;;;;1.98;1.17;;;20.50;94.40;;;;;;5055716;28;20025;-67
2023/08/28 04:13:11;;;;;;;2.78;1.02;;;20.50;94.00;;;;;;5055276;28;20082;-67
2023/08/28 04:15:37;;;;;;;4.03;1.40;;;20.50;93.90;;;;;;5055478;28;20029;-67
2023/08/28 04:18:04;;;;;;;2.33;1.42;;;20.50;94.00;;;;;;5055161;28;20032;-67
2023/08/28 04:20:30;;;;;;;1.77;1.27;;;20.50;94.10;;;;;;5034086;28;20024;-67
2023/08/28 04:22:56;;;;;;;1.42;1.30;;;20.50;93.90;;;;;;5055543;28;20029;-67
2023/08/28 04:25:21;;;;;;;1.77;1.38;;;20.40;93.90;;;;;;5055073;28;20039;-68
2023/08/28 04:27:47;;;;;;;1.77;1.00;;;20.40;93.80;;;;;;5055403;28;20084;-68
2023/08/28 04:30:13;;;;;;;1.58;1.20;;;20.40;94.00;;;;;;5054696;28;20389;-68
2023/08/28 04:32:39;;;;;;;1.83;1.30;;;20.40;94.00;;;;;;5055656;28;20083;-68
2023/08/28 04:35:06;;;;;;;1.85;1.38;;;20.40;93.70;;;;;;5055117;28;20041;-67
2023/08/28 04:37:32;;;;;;;1.63;1.30;;;20.40;93.70;;;;;;5055165;28;20461;-68
2023/08/28 04:39:58;;;;;;;4.55;1.42;;;20.50;93.50;;;;;;5054909;28;20021;-71
2023/08/28 04:42:24;;;;;;;2.53;1.30;;;20.50;93.20;;;;;;5055249;28;20025;-67
2023/08/28 04:44:50;;;;;;;2.47;1.20;;;20.40;93.40;;;;;;5054238;28;20117;-67
2023/08/28 04:47:16;;;;;;;3.38;1.33;;;20.40;93.70;;;;;;5036885;28;20456;-68
2023/08/28 04:49:41;;;;;;;1.50;1.05;;;20.40;93.70;;;;;;5054626;28;20039;-68
2023/08/28 04:52:07;;;;;;;3.83;1.40;;;20.30;93.60;;;;;;5054544;28;20025;-68
2023/08/28 04:54:34;;;;;;;1.70;1.10;;;20.30;93.70;;;;;;5054924;28;20044;-68
2023/08/28 04:57:00;;;;;;;2.15;1.40;;;20.30;93.70;;;;;;5054208;28;20032;-71
2023/08/28 04:59:26;;;;;;;1.70;1.40;;;20.30;93.70;;;;;;5054848;28;20036;-67
2023/08/28 05:01:51;;;;;;;2.10;1.40;;;20.30;93.60;;;;;;5054659;28;20033;-67
2023/08/28 05:04:17;;;;;;;1.67;1.20;;;20.30;93.50;;;;;;5054194;28;20036;-67
2023/08/28 05:06:43;;;;;;;3.15;1.40;;;20.30;93.90;;;;;;5054730;28;20033;-67
2023/08/28 05:09:10;;;;;;;4.68;1.42;;;20.30;93.80;;;;;;5053892;28;20032;-67
2023/08/28 05:11:36;;;;;;;4.72;1.30;;;20.30;93.60;;;;;;5054556;28;20377;-66
2023/08/28 05:14:01;;;;;;;3.95;1.40;;;20.20;93.70;;;;;;5054240;28;20108;-70
2023/08/28 05:16:27;;;;;;;3.05;1.27;;;20.30;93.90;;;;;;5054466;28;20053;-68
2023/08/28 05:18:52;;;;;;;1.90;1.30;;;20.30;93.60;;;;;;5036770;28;20029;-69
2023/08/28 05:21:18;;;;;;;3.60;1.30;;;20.30;93.80;;;;;;5053765;28;20503;-67
2023/08/28 05:23:44;;;;;;;1.85;1.30;;;20.30;93.50;;;;;;5054259;28;20028;-68
2023/08/28 05:26:09;;;;;;;2.05;1.33;;;20.20;93.80;;;;;;5053576;28;20394;-67
2023/08/28 05:28:35;;;;;;;2.80;1.23;;;20.20;93.70;;;;;;5054244;28;20049;-67
2023/08/28 05:31:02;;;;;;;1.98;1.40;;;20.20;94.00;;;;;;5054056;28;20111;-67
2023/08/28 05:33:27;;;;;;;2.38;1.40;;;20.20;94.30;;;;;;5036207;28;20541;-67
2023/08/28 05:35:53;;;;;;;3.53;1.55;;;20.20;94.20;;;;;;5054063;28;20116;-67
2023/08/28 05:38:19;;;;;;;2.97;1.52;;;20.30;94.30;;;;;;5053664;28;20489;-67
2023/08/28 05:40:45;;;;;;;1.50;1.08;;;20.30;94.30;;;;;;5053973;28;20071;-67
2023/08/28 05:43:11;;;;;;;1.98;1.77;;;20.30;94.30;;;;;;5053808;28;20079;-68
2023/08/28 05:45:37;;;;;;;2.40;1.38;;;20.30;94.20;;;;;;5054109;28;20029;-68
2023/08/28 05:48:03;;;;;;;3.03;1.52;;;20.20;94.70;;;;;;5050683;28;20401;-67
2023/08/28 05:50:29;;;;;;;3.03;1.90;;;20.20;94.70;;;;;;5053832;28;20037;-67
2023/08/28 05:52:54;;;;;;;1.85;1.42;;;20.20;94.80;;;;;;5053819;28;20025;-67
2023/08/28 05:55:20;;;;;;;2.72;1.50;;;20.20;94.90;;;;;;5052502;28;20045;-67
2023/08/28 05:57:45;;;;;;;1.90;1.50;;;20.20;95.00;;;;;;5036161;28;20083;-67
2023/08/28 06:00:13;;;;;;;2.88;2.10;;;20.20;95.00;;;;;;5033165;28;20057;-67
2023/08/28 06:02:40;;;;;;;4.63;1.40;;;20.20;94.50;;;;;;5033539;28;20032;-67
2023/08/28 06:05:06;;;;;;;3.15;1.63;;;20.10;94.50;;;;;;5033470;28;20087;-67
2023/08/28 06:07:32;;;;;;;2.92;1.55;;;20.10;94.60;;;;;;5033513;28;20040;-67
2023/08/28 06:09:58;;;;;;;1.63;1.30;;;20.10;94.70;;;;;;5033122;28;20025;-67
2023/08/28 06:12:24;;;;;;;3.38;1.60;;;20.10;94.60;;;;;;5033137;28;20022;-68
2023/08/28 06:14:50;;;;;;;3.45;1.70;;;20.10;94.80;;;;;;5033319;28;20037;-67
2023/08/28 06:17:16;;;;;;;2.30;1.30;;;20.10;95.00;;;;;;5032993;28;20030;-68
2023/08/28 06:19:41;;;;;;;2.70;1.50;;;20.10;94.90;;;;;;5033246;28;20025;-68
2023/08/28 06:22:07;;;;;;;3.80;1.48;;;20.10;94.80;;;;;;5032600;28;20033;-69
2023/08/28 06:24:33;;;;;;;2.60;1.40;;;20.10;95.20;;;;;;5033228;28;20029;-68
2023/08/28 06:26:59;;;;;;;2.88;1.67;;;20.10;95.40;;;;;;5032882;28;20074;-67
2023/08/28 06:29:24;;;;;;;1.50;1.30;;;20.10;95.70;;;;;;5035160;28;20112;-67
2023/08/28 06:31:51;;;;;;;3.65;1.40;;;20.20;95.30;;;;;;5033255;28;20152;-67
2023/08/28 06:34:17;;;;;;;2.40;1.40;;;20.20;95.00;;;;;;5032649;28;20036;-67
2023/08/28 06:36:42;;;;;;;1.95;1.30;;;20.20;94.90;;;;;;5033058;28;20034;-67
2023/08/28 06:39:08;;;;;;;2.45;1.42;;;20.30;94.90;;;;;;5032642;28;20022;-68
2023/08/28 06:41:34;;;;;;;3.33;1.40;;;20.20;94.80;;;;;;5032861;28;20068;-67
2023/08/28 06:44:00;;;;;;;1.52;1.33;;;20.30;94.60;;;;;;5032904;28;20032;-67
2023/08/28 06:46:26;;;;;;;1.42;1.30;;;20.30;94.70;;;;;;5032586;28;20478;-67
2023/08/28 06:48:52;;;;;;;3.40;1.50;;;20.30;94.60;;;;;;5032596;28;20469;-67
2023/08/28 06:51:19;;;;;;;2.20;1.13;;;20.30;94.50;;;;;;5032499;28;20126;-68
2023/08/28 06:53:45;;;;;;;2.45;1.13;;;20.30;94.20;;;;;;5032769;28;20029;-66
2023/08/28 06:56:10;;;;;;;2.30;1.38;;;20.30;94.30;;;;;;5032438;28;20064;-68
2023/08/28 06:58:36;;;;;;;2.78;1.45;;;20.30;94.30;;;;;;5032712;28;20037;-67
2023/08/28 07:01:02;;;;;;;4.78;1.45;;;20.30;94.40;;;;;;5032760;28;20037;-69
2023/08/28 07:03:28;;;;;;;2.28;1.75;;;20.40;94.10;;;;;;5032326;28;20025;-68
2023/08/28 07:05:53;;;;;;;2.40;1.35;;;20.40;94.10;;;;;;5015111;28;20390;-68
2023/08/28 07:08:19;;;;;;;4.85;1.60;;;20.40;93.90;;;;;;5031614;28;20539;-68
2023/08/28 07:10:44;;;;;;;2.05;1.40;;;20.50;93.80;;;;;;5032502;28;20026;-68
2023/08/28 07:13:10;;;;;;;2.15;1.40;;;20.50;93.70;;;;;;5031965;28;20030;-69
2023/08/28 07:15:36;;;;;;;2.45;1.25;;;20.60;93.30;;;;;;5032502;28;20374;-68
2023/08/28 07:18:03;;;;;;;2.85;1.60;;;20.70;93.30;;;;;;5032289;28;20026;-68
2023/08/28 07:20:28;;;;;;;3.35;1.50;;;20.80;93.00;;;;;;5031991;28;20092;-68
2023/08/28 07:22:54;;;;;;;1.80;1.38;;;20.90;92.20;;;;;;5032406;28;20417;-68
2023/08/28 07:25:22;;;;;;;2.42;1.30;;;21.00;92.00;;;;;;5032117;28;20045;-68
2023/08/28 07:27:48;;;;;;;4.53;1.65;;;20.90;91.80;;;;;;5032354;28;20084;-68
2023/08/28 07:30:14;;;;;;;3.70;1.70;;;21.00;92.10;;;;;;5032061;28;20120;-68
2023/08/28 07:32:40;;;;;;;2.45;1.42;;;21.10;91.70;;;;;;5032130;28;20144;-68
2023/08/28 07:35:07;;;;;;;2.78;1.70;;;21.20;91.10;;;;;;5032374;28;20033;-67
2023/08/28 07:37:36;;;;;;;2.10;1.52;;;21.30;91.00;;;;;;5031985;28;20036;-67
2023/08/28 07:40:04;;;;;;;2.30;1.70;;;21.30;90.50;;;;;;5032322;28;20028;-68
2023/08/28 07:42:30;;;;;;;4.30;1.65;;;21.30;90.30;;;;;;5032003;28;20381;-67
2023/08/28 07:44:56;;;;;;;3.15;1.70;;;21.30;90.10;;;;;;5032622;28;20025;-67
2023/08/28 07:47:21;;;;;;;3.60;1.65;;;21.30;90.10;;;;;;5031718;28;20068;-67
2023/08/28 07:49:47;;;;;;;2.45;1.73;;;21.30;89.80;;;;;;5032001;28;20032;-68
2023/08/28 07:52:13;;;;;;;3.00;2.10;;;21.40;89.60;;;;;;5033706;28;20025;-71
2023/08/28 07:54:38;;;;;;;2.28;1.55;;;21.40;88.50;;;;;;5032281;28;20077;-68
2023/08/28 07:57:04;;;;;;;3.88;2.00;;;21.50;87.90;;;;;;5031840;28;20036;-67
2023/08/28 07:59:30;;;;;;;3.05;1.80;;;21.50;87.70;;;;;;5031868;28;20028;-67
2023/08/28 08:01:57;;;;;;;3.35;1.85;;;21.60;87.50;;;;;;5031941;28;20026;-67
2023/08/28 08:04:23;;;;;;;4.13;1.95;;;21.70;86.30;;;;;;5032635;28;20034;-68
2023/08/28 08:06:49;;;;;;;3.70;2.10;;;21.90;87.10;;;;;;5032131;28;20087;-68
2023/08/28 08:09:14;;;;;;;2.58;1.90;;;22.00;85.40;;;;;;5031663;28;20030;-68
2023/08/28 08:11:40;;;;;;;3.65;2.08;;;22.40;84.20;;;;;;5032366;28;20025;-67
2023/08/28 08:14:06;;;;;;;2.50;1.83;;;22.70;82.20;;;;;;5032020;28;20378;-67
2023/08/28 08:16:31;;;;;;;2.50;1.73;;;23.10;80.90;;;;;;5031493;28;20029;-67
2023/08/28 08:18:57;;;;;;;11.75;1.75;;;23.60;78.60;;;;;;5032613;28;20028;-67
2023/08/28 08:21:22;;;;;;;2.20;1.80;;;24.10;77.60;;;;;;5035192;28;20021;-67
2023/08/28 08:23:49;;;;;;;3.92;1.70;;;24.60;76.70;;;;;;5035712;28;20025;-67
2023/08/28 08:26:15;;;;;;;3.63;2.13;;;25.20;73.00;;;;;;5035537;28;20060;-67
2023/08/28 08:28:41;;;;;;;2.85;1.48;;;25.60;70.70;;;;;;5035392;28;20025;-68
2023/08/28 08:31:07;;;;;;;3.63;1.85;;;26.00;69.50;;;;;;5035274;28;20107;-68
2023/08/28 08:33:32;;;;;;;2.88;1.80;;;26.60;68.90;;;;;;5034954;28;20033;-68
2023/08/28 08:35:58;;;;;;;3.13;1.73;;;26.80;65.60;;;;;;5035029;28;20030;-67
2023/08/28 08:38:24;;;;;;;2.78;2.00;;;26.80;66.10;;;;;;5037236;28;20120;-68
2023/08/28 08:40:52;;;;;;;3.33;1.75;;;26.70;65.10;;;;;;5035122;28;20112;-70
2023/08/28 08:43:18;;;;;;;5.85;2.17;;;26.60;65.40;;;;;;5034769;28;20021;-67
2023/08/28 08:45:47;;;;;;;3.00;1.80;;;26.50;64.80;;;;;;5035111;28;20026;-68
2023/08/28 08:48:17;;;;;;;7.82;2.10;;;26.40;64.10;;;;;;5034731;28;20492;-67
2023/08/28 08:50:45;;;;;;;5.85;2.08;;;25.80;65.50;;;;;;5034872;28;20477;-68
2023/08/28 08:53:26;;;;;;;2.33;1.80;;;25.30;67.90;;;;;;5035141;28;20026;-67
2023/08/28 08:55:57;;;;;;;3.00;1.77;;;25.10;67.90;;;;;;5035155;28;20059;-67
2023/08/28 08:58:24;;;;;;;3.72;1.75;;;24.90;68.80;;;;;;5034445;28;20071;-68
2023/08/28 09:00:50;;;;;;;4.07;1.85;;;24.80;69.70;;;;;;5017485;28;20467;-68
2023/08/28 09:03:17;;;;;;;4.40;2.20;;;24.80;70.30;;;;;;5034949;28;20116;-67
2023/08/28 09:05:44;;;;;;;2.83;2.10;;;24.80;69.40;;;;;;5034435;28;20029;-67
2023/08/28 09:08:12;;;;;;;2.28;1.98;;;24.70;68.90;;;;;;5034898;28;20100;-67
2023/08/28 09:10:38;;;;;;;3.08;2.38;;;24.70;69.20;;;;;;5034184;28;20249;-67
2023/08/28 09:13:04;;;;;;;2.95;2.10;;;24.70;68.80;;;;;;5034234;28;20113;-67
2023/08/28 09:15:29;;;;;;;4.30;2.85;;;24.60;69.20;;;;;;5033598;28;20064;-67
2023/08/28 09:17:55;;;;;;;2.40;1.85;;;24.50;69.00;;;;;;5016500;28;20076;-68
2023/08/28 09:20:21;;;;;;;2.63;2.00;;;24.40;69.60;;;;;;5033619;28;20022;-68
2023/08/28 09:22:49;;;;;;;6.95;2.38;;;24.30;70.00;;;;;;5034243;28;20029;-67
2023/08/28 09:25:19;;;;;;;4.55;2.40;;;24.20;70.50;;;;;;5034525;28;20033;-66
2023/08/28 09:27:46;;;;;;;5.50;2.20;;;24.00;71.20;;;;;;5034353;28;20382;-68
2023/08/28 09:30:29;;;;;;;5.45;2.75;;;23.90;71.70;;;;;;5033984;28;20247;-66
2023/08/28 09:32:57;;;;;;;4.95;2.45;;;23.80;71.70;;;;;;5034192;28;20030;-66
2023/08/28 09:35:26;;;;;;;6.18;2.40;;;23.60;72.80;;;;;;5033560;28;20073;-68
2023/08/28 09:37:59;;;;;;;4.20;2.15;;;23.50;73.00;;;;;;5033886;28;20036;-67
2023/08/28 09:40:32;;;;;;;3.50;2.30;;;23.50;74.00;;;;;;5033684;28;20112;-68
2023/08/28 09:42:59;;;;;;;4.88;2.70;;;23.50;74.50;;;;;;5034020;28;20021;-68
2023/08/28 09:45:32;;;;;;;4.05;2.20;;;23.50;74.00;;;;;;5033284;28;20029;-68
2023/08/28 09:47:57;;;;;;;3.75;2.10;;;23.40;74.10;;;;;;5033692;28;20174;-67
2023/08/28 09:50:24;;;;;;;4.28;2.33;;;23.40;74.30;;;;;;5033453;28;20108;-68
2023/08/28 09:52:50;;;;;;;5.63;2.53;;;23.40;74.50;;;;;;5033884;28;20021;-67
2023/08/28 09:55:16;;;;;;;4.13;2.80;;;23.40;75.30;;;;;;5033340;28;20520;-67
2023/08/28 09:57:44;;;;;;;5.63;2.80;;;23.40;74.30;;;;;;5041495;28;20508;-67
2023/08/28 10:00:12;;;;;;;3.95;2.78;;;23.40;74.10;;;;;;5053487;28;20025;-67
2023/08/28 10:02:39;;;;;;;4.03;2.33;;;23.30;74.30;;;;;;5052916;28;20075;-68
2023/08/28 10:05:10;;;;;;;3.65;2.50;;;23.40;75.00;;;;;;5053131;28;20091;-67
2023/08/28 10:07:39;;;;;;;7.03;3.20;;;23.50;75.00;;;;;;5052845;28;20120;-67
2023/08/28 10:10:07;;;;;;;4.50;2.75;;;23.50;74.40;;;;;;5053265;28;20028;-67
2023/08/28 10:12:34;;;;;;;2.97;2.47;;;23.50;74.50;;;;;;5052741;28;20028;-67
2023/08/28 10:15:03;;;;;;;3.42;2.58;;;23.50;74.50;;;;;;5053237;28;20373;-68
2023/08/28 10:17:31;;;;;;;3.78;2.33;;;23.60;75.10;;;;;;5052781;28;20423;-68
2023/08/28 10:20:03;;;;;;;4.63;2.50;;;23.70;75.20;;;;;;5053281;28;20060;-69
2023/08/28 10:22:31;;;;;;;5.40;2.55;;;23.60;75.30;;;;;;5052694;28;20025;-66
2023/08/28 10:24:58;;;;;;;4.43;2.45;;;23.60;75.20;;;;;;5052952;28;20450;-67
2023/08/28 10:27:24;;;;;;;5.18;2.90;;;23.60;74.60;;;;;;5052889;28;20381;-71
2023/08/28 10:29:51;;;;;;;5.05;2.78;;;23.60;75.20;;;;;;5052937;28;20032;-67
2023/08/28 10:32:18;;;;;;;6.32;2.88;;;23.60;76.40;;;;;;5052842;28;20028;-67
2023/08/28 10:34:44;;;;;;;3.92;2.58;;;23.60;75.00;;;;;;5052271;28;20431;-67
2023/08/28 10:37:12;;;;;;;3.83;2.50;;;23.70;75.00;;;;;;5052800;28;20050;-67
2023/08/28 10:39:40;;;;;;;3.28;2.67;;;23.70;74.30;;;;;;5048989;28;20025;-67
2023/08/28 10:42:08;;;;;;;5.45;3.33;;;23.80;74.90;;;;;;5052209;28;20025;-67
2023/08/28 10:44:34;;;;;;;2.60;2.40;;;23.90;74.20;;;;;;5052368;28;20036;-68
2023/08/28 10:47:00;;;;;;;3.85;2.67;;;23.80;74.30;;;;;;5052700;28;20028;-67
2023/08/28 10:49:27;;;;;;;5.82;2.42;;;23.90;74.00;;;;;;5052450;28;20071;-67
2023/08/28 10:52:06;;;;;;;3.92;2.35;;;24.00;73.90;;;;;;5052730;28;20029;-67
2023/08/28 10:54:39;;;;;;;5.68;2.40;;;23.90;73.40;;;;;;5051823;28;20126;-67
2023/08/28 10:57:15;;;;;;;4.22;2.88;;;23.90;73.10;;;;;;5052623;28;20116;-67
2023/08/28 10:59:43;;;;;;;4.93;2.38;;;23.90;73.50;;;;;;5052016;28;20112;-67
2023/08/28 11:02:09;;;;;;;3.55;2.38;;;24.00;73.30;;;;;;5052565;28;20441;-69
2023/08/28 11:04:37;;;;;;;5.53;3.10;;;24.00;73.50;;;;;;5052024;28;20049;-67
2023/08/28 11:07:03;;;;;;;3.22;2.70;;;24.10;73.80;;;;;;5052386;28;20044;-67
2023/08/28 11:09:29;;;;;;;4.82;2.72;;;24.20;73.50;;;;;;5052104;28;20029;-68
2023/08/28 11:11:57;;;;;;;5.75;2.85;;;24.20;73.40;;;;;;5052312;28;20458;-67
2023/08/28 11:14:24;;;;;;;4.82;2.55;;;24.30;73.00;;;;;;5052550;28;20028;-67
2023/08/28 11:17:15;;;;;;;5.32;2.83;;;24.40;72.60;;;;;;5051583;28;20029;-67
2023/08/28 11:19:55;;;;;;;3.72;2.78;;;24.40;72.60;;;;;;5051946;28;20029;-68
2023/08/28 11:22:37;;;;;;;4.35;2.20;;;24.60;71.90;;;;;;5052001;28;20547;-67
2023/08/28 11:25:07;;;;;;;4.72;2.40;;;24.60;72.30;;;;;;5052495;28;20033;-67
2023/08/28 11:27:49;;;;;;;3.50;2.25;;;24.70;72.10;;;;;;5052044;28;20025;-67
2023/08/28 11:30:20;;;;;;;2.95;2.47;;;24.80;71.80;;;;;;5052235;28;20041;-67
2023/08/28 11:32:49;;;;;;;4.40;2.40;;;24.90;70.70;;;;;;5051631;28;20032;-67
2023/08/28 11:35:19;;;;;;;3.25;2.42;;;24.80;70.50;;;;;;5052267;28;20040;-67
2023/08/28 11:37:54;;;;;;;3.85;2.15;;;24.80;71.30;;;;;;5051837;28;20083;-67
2023/08/28 11:40:21;;;;;;;5.30;2.42;;;24.80;71.50;;;;;;5051916;28;20424;-68
2023/08/28 11:42:48;;;;;;;4.30;2.33;;;24.80;71.70;;;;;;5051754;28;20025;-67
2023/08/28 11:45:21;;;;;;;3.92;2.20;;;24.90;71.60;;;;;;5051934;28;20474;-67
2023/08/28 11:47:47;;;;;;;3.53;2.40;;;25.00;71.00;;;;;;5051617;28;20377;-67
2023/08/28 11:50:13;;;;;;;5.22;2.58;;;24.90;71.00;;;;;;5041352;28;20026;-67
2023/08/28 11:52:39;;;;;;;3.65;2.45;;;25.10;71.10;;;;;;5031852;28;20490;-67
2023/08/28 11:55:06;;;;;;;4.20;2.42;;;25.20;71.50;;;;;;5034649;28;20053;-65
2023/08/28 11:57:33;;;;;;;6.70;2.63;;;25.40;72.10;;;;;;5035693;28;20155;-67
2023/08/28 12:00:01;;;;;;;6.57;2.97;;;25.50;70.90;;;;;;5035937;28;20076;-67
2023/08/28 12:02:28;;;;;;;3.10;2.47;;;25.60;70.40;;;;;;5035943;28;20021;-67
2023/08/28 12:04:54;;;;;;;5.90;2.50;;;25.70;69.70;;;;;;5019937;28;20056;-66
2023/08/28 12:07:22;;;;;;;3.88;2.53;;;25.70;70.40;;;;;;5035623;28;20510;-67
2023/08/28 12:09:50;;;;;;;6.75;2.72;;;25.80;70.60;;;;;;5035241;28;20036;-67
2023/08/28 12:12:16;;;;;;;3.38;2.60;;;25.90;69.80;;;;;;5035906;28;20512;-68
2023/08/28 12:14:43;;;;;;;5.93;2.67;;;25.90;69.00;;;;;;5035248;28;20060;-68
2023/08/28 12:17:17;;;;;;;3.67;2.30;;;25.90;69.20;;;;;;5035628;28;20045;-67
2023/08/28 12:19:43;;;;;;;3.78;2.15;;;26.00;69.30;;;;;;5035119;28;20033;-67
2023/08/28 12:22:10;;;;;;;5.90;2.40;;;25.90;69.10;;;;;;5035477;28;20029;-67
2023/08/28 12:24:43;;;;;;;2.88;2.45;;;25.90;69.10;;;;;;5035098;28;20025;-68
2023/08/28 12:27:10;;;;;;;3.92;2.80;;;25.90;69.50;;;;;;5035744;28;20037;-67
2023/08/28 12:29:37;;;;;;;3.17;2.40;;;25.80;68.50;;;;;;5035134;28;20061;-67
2023/08/28 12:32:06;;;;;;;4.13;2.92;;;25.80;69.20;;;;;;5035264;28;20026;-67
2023/08/28 12:34:33;;;;;;;3.60;2.70;;;25.90;69.60;;;;;;5045061;28;20029;-68
2023/08/28 12:37:11;;;;;;;3.17;2.58;;;25.90;68.80;;;;;;5037150;28;20102;-67
2023/08/28 12:39:45;;;;;;;3.13;2.42;;;25.90;68.50;;;;;;5054751;28;20477;-68
2023/08/28 12:42:12;;;;;;;3.83;2.88;;;25.90;69.10;;;;;;5055208;28;20033;-67
2023/08/28 12:44:40;;;;;;;5.53;2.33;;;25.80;68.90;;;;;;5054653;28;20021;-66
2023/08/28 12:47:06;;;;;;;4.47;2.78;;;25.80;69.40;;;;;;5054875;28;20028;-67
2023/08/28 12:49:32;;;;;;;3.47;2.67;;;25.80;69.00;;;;;;5055026;28;20067;-67